sensor_id;sensor_type;location;lat;lon;timestamp;temperature;humidity
8105;DHT22;4095;48.942;9.104;2022-07-09T00:01:18;16.90;90.30
8105;DHT22;4095;48.942;9.104;2022-07-09T00:03:43;17.00;90.50
8105;DHT22;4095;48.942;9.104;2022-07-09T00:06:09;17.00;90.70
8105;DHT22;4095;48.942;9.104;2022-07-09T00:08:35;16.90;90.60
8105;DHT22;4095;48.942;9.104;2022-07-09T00:11:00;16.80;90.60
8105;DHT22;4095;48.942;9.104;2022-07-09T00:13:26;16.80;90.70
8105;DHT22;4095;48.942;9.104;2022-07-09T00:15:51;16.80;90.60
8105;DHT22;4095;48.942;9.104;2022-07-09T00:18:20;16.70;90.40
8105;DHT22;4095;48.942;9.104;2022-07-09T00:20:45;16.70;90.70
8105;DHT22;4095;48.942;9.104;2022-07-09T00:23:11;16.70;90.80
8105;DHT22;4095;48.942;9.104;2022-07-09T00:25:37;16.60;90.90
8105;DHT22;4095;48.942;9.104;2022-07-09T00:28:02;16.60;90.80
8105;DHT22;4095;48.942;9.104;2022-07-09T00:30:28;16.60;90.80
8105;DHT22;4095;48.942;9.104;2022-07-09T00:32:54;16.50;90.90
8105;DHT22;4095;48.942;9.104;2022-07-09T00:35:19;16.50;91.00
8105;DHT22;4095;48.942;9.104;2022-07-09T00:37:45;16.50;90.90
8105;DHT22;4095;48.942;9.104;2022-07-09T00:40:11;16.50;91.20
8105;DHT22;4095;48.942;9.104;2022-07-09T00:42:36;16.50;91.30
8105;DHT22;4095;48.942;9.104;2022-07-09T00:45:02;16.40;91.20
8105;DHT22;4095;48.942;9.104;2022-07-09T00:47:28;16.40;91.40
8105;DHT22;4095;48.942;9.104;2022-07-09T00:49:54;16.40;91.70
8105;DHT22;4095;48.942;9.104;2022-07-09T00:52:20;16.40;91.30
8105;DHT22;4095;48.942;9.104;2022-07-09T00:54:46;16.40;91.40
8105;DHT22;4095;48.942;9.104;2022-07-09T00:57:12;16.30;91.50
8105;DHT22;4095;48.942;9.104;2022-07-09T00:59:38;16.30;91.50
8105;DHT22;4095;48.942;9.104;2022-07-09T01:02:07;16.30;91.50
8105;DHT22;4095;48.942;9.104;2022-07-09T01:04:32;16.20;91.50
8105;DHT22;4095;48.942;9.104;2022-07-09T01:06:58;16.20;91.50
8105;DHT22;4095;48.942;9.104;2022-07-09T01:09:25;16.20;91.50
8105;DHT22;4095;48.942;9.104;2022-07-09T01:11:51;16.20;91.40
8105;DHT22;4095;48.942;9.104;2022-07-09T01:14:17;16.20;91.30
8105;DHT22;4095;48.942;9.104;2022-07-09T01:16:42;16.20;91.30
8105;DHT22;4095;48.942;9.104;2022-07-09T01:19:08;16.20;91.50
8105;DHT22;4095;48.942;9.104;2022-07-09T01:21:34;16.10;91.40
8105;DHT22;4095;48.942;9.104;2022-07-09T01:24:00;16.10;91.50
8105;DHT22;4095;48.942;9.104;2022-07-09T01:26:26;16.10;91.60
8105;DHT22;4095;48.942;9.104;2022-07-09T01:28:52;16.00;91.80
8105;DHT22;4095;48.942;9.104;2022-07-09T01:31:17;16.00;91.80
8105;DHT22;4095;48.942;9.104;2022-07-09T01:33:43;16.00;91.80
8105;DHT22;4095;48.942;9.104;2022-07-09T01:36:10;15.90;91.70
8105;DHT22;4095;48.942;9.104;2022-07-09T01:38:36;15.90;91.90
8105;DHT22;4095;48.942;9.104;2022-07-09T01:41:02;15.90;92.10
8105;DHT22;4095;48.942;9.104;2022-07-09T01:43:28;15.90;92.00
8105;DHT22;4095;48.942;9.104;2022-07-09T01:45:54;15.80;91.90
8105;DHT22;4095;48.942;9.104;2022-07-09T01:48:19;15.80;91.80
8105;DHT22;4095;48.942;9.104;2022-07-09T01:50:45;15.80;91.90
8105;DHT22;4095;48.942;9.104;2022-07-09T01:53:11;15.80;92.10
8105;DHT22;4095;48.942;9.104;2022-07-09T01:55:36;15.80;92.10
8105;DHT22;4095;48.942;9.104;2022-07-09T01:58:02;15.70;91.90
8105;DHT22;4095;48.942;9.104;2022-07-09T02:00:28;15.70;92.20
8105;DHT22;4095;48.942;9.104;2022-07-09T02:02:55;15.70;91.90
8105;DHT22;4095;48.942;9.104;2022-07-09T02:05:21;15.70;91.90
8105;DHT22;4095;48.942;9.104;2022-07-09T02:07:47;15.70;92.00
8105;DHT22;4095;48.942;9.104;2022-07-09T02:10:13;15.70;92.00
8105;DHT22;4095;48.942;9.104;2022-07-09T02:12:39;15.60;92.10
8105;DHT22;4095;48.942;9.104;2022-07-09T02:15:06;15.60;92.00
8105;DHT22;4095;48.942;9.104;2022-07-09T02:17:33;15.50;92.20
8105;DHT22;4095;48.942;9.104;2022-07-09T02:19:59;15.50;92.30
8105;DHT22;4095;48.942;9.104;2022-07-09T02:22:25;15.40;92.40
8105;DHT22;4095;48.942;9.104;2022-07-09T02:24:50;15.50;92.50
8105;DHT22;4095;48.942;9.104;2022-07-09T02:27:16;15.50;92.30
8105;DHT22;4095;48.942;9.104;2022-07-09T02:29:41;15.50;92.60
8105;DHT22;4095;48.942;9.104;2022-07-09T02:32:08;15.50;92.40
8105;DHT22;4095;48.942;9.104;2022-07-09T02:34:36;15.40;92.40
8105;DHT22;4095;48.942;9.104;2022-07-09T02:37:02;15.40;92.50
8105;DHT22;4095;48.942;9.104;2022-07-09T02:39:28;15.40;92.80
8105;DHT22;4095;48.942;9.104;2022-07-09T02:41:53;15.40;92.60
8105;DHT22;4095;48.942;9.104;2022-07-09T02:44:19;15.40;92.70
8105;DHT22;4095;48.942;9.104;2022-07-09T02:46:44;15.30;92.70
8105;DHT22;4095;48.942;9.104;2022-07-09T02:49:10;15.40;92.80
8105;DHT22;4095;48.942;9.104;2022-07-09T02:51:36;15.40;92.60
8105;DHT22;4095;48.942;9.104;2022-07-09T02:54:02;15.30;92.20
8105;DHT22;4095;48.942;9.104;2022-07-09T02:56:27;15.30;92.20
8105;DHT22;4095;48.942;9.104;2022-07-09T02:58:53;15.20;92.30
8105;DHT22;4095;48.942;9.104;2022-07-09T03:01:19;15.20;92.30
8105;DHT22;4095;48.942;9.104;2022-07-09T03:03:45;15.10;92.50
8105;DHT22;4095;48.942;9.104;2022-07-09T03:06:11;15.20;92.60
8105;DHT22;4095;48.942;9.104;2022-07-09T03:08:38;15.10;92.50
8105;DHT22;4095;48.942;9.104;2022-07-09T03:11:04;15.10;92.50
8105;DHT22;4095;48.942;9.104;2022-07-09T03:13:35;15.10;92.30
8105;DHT22;4095;48.942;9.104;2022-07-09T03:16:02;15.10;92.40
8105;DHT22;4095;48.942;9.104;2022-07-09T03:18:27;15.00;92.50
8105;DHT22;4095;48.942;9.104;2022-07-09T03:20:53;15.00;92.50
8105;DHT22;4095;48.942;9.104;2022-07-09T03:23:18;15.00;92.90
8105;DHT22;4095;48.942;9.104;2022-07-09T03:25:44;15.00;92.60
8105;DHT22;4095;48.942;9.104;2022-07-09T03:28:10;15.00;92.90
8105;DHT22;4095;48.942;9.104;2022-07-09T03:30:35;15.00;92.90
8105;DHT22;4095;48.942;9.104;2022-07-09T03:33:01;15.00;93.10
8105;DHT22;4095;48.942;9.104;2022-07-09T03:35:27;15.00;93.20
8105;DHT22;4095;48.942;9.104;2022-07-09T03:37:52;15.00;92.90
8105;DHT22;4095;48.942;9.104;2022-07-09T03:40:18;15.00;93.10
8105;DHT22;4095;48.942;9.104;2022-07-09T03:42:43;14.90;93.00
8105;DHT22;4095;48.942;9.104;2022-07-09T03:45:10;15.00;92.90
8105;DHT22;4095;48.942;9.104;2022-07-09T03:47:35;14.90;93.00
8105;DHT22;4095;48.942;9.104;2022-07-09T03:50:01;14.90;93.00
8105;DHT22;4095;48.942;9.104;2022-07-09T03:52:27;14.90;93.20
8105;DHT22;4095;48.942;9.104;2022-07-09T03:54:52;14.90;93.30
8105;DHT22;4095;48.942;9.104;2022-07-09T03:57:18;14.90;93.50
8105;DHT22;4095;48.942;9.104;2022-07-09T03:59:44;14.90;93.40
8105;DHT22;4095;48.942;9.104;2022-07-09T04:02:09;15.00;93.30
8105;DHT22;4095;48.942;9.104;2022-07-09T04:04:35;15.00;93.20
8105;DHT22;4095;48.942;9.104;2022-07-09T04:07:00;14.90;93.30
8105;DHT22;4095;48.942;9.104;2022-07-09T04:09:26;15.00;93.20
8105;DHT22;4095;48.942;9.104;2022-07-09T04:11:51;15.00;93.40
8105;DHT22;4095;48.942;9.104;2022-07-09T04:14:17;15.00;93.50
8105;DHT22;4095;48.942;9.104;2022-07-09T04:16:45;15.10;93.50
8105;DHT22;4095;48.942;9.104;2022-07-09T04:19:11;15.10;93.50
8105;DHT22;4095;48.942;9.104;2022-07-09T04:21:37;15.20;93.50
8105;DHT22;4095;48.942;9.104;2022-07-09T04:24:03;15.20;93.60
8105;DHT22;4095;48.942;9.104;2022-07-09T04:26:29;15.30;93.60
8105;DHT22;4095;48.942;9.104;2022-07-09T04:28:54;15.30;93.60
8105;DHT22;4095;48.942;9.104;2022-07-09T04:31:20;15.40;93.70
8105;DHT22;4095;48.942;9.104;2022-07-09T04:33:47;15.40;93.70
8105;DHT22;4095;48.942;9.104;2022-07-09T04:36:13;15.40;93.70
8105;DHT22;4095;48.942;9.104;2022-07-09T04:38:38;15.40;93.70
8105;DHT22;4095;48.942;9.104;2022-07-09T04:41:05;15.40;93.70
8105;DHT22;4095;48.942;9.104;2022-07-09T04:43:31;15.50;93.80
8105;DHT22;4095;48.942;9.104;2022-07-09T04:45:57;15.50;93.80
8105;DHT22;4095;48.942;9.104;2022-07-09T04:48:23;15.60;93.90
8105;DHT22;4095;48.942;9.104;2022-07-09T04:50:49;15.70;93.80
8105;DHT22;4095;48.942;9.104;2022-07-09T04:53:15;15.70;93.70
8105;DHT22;4095;48.942;9.104;2022-07-09T04:55:40;15.80;93.60
8105;DHT22;4095;48.942;9.104;2022-07-09T04:58:06;15.80;93.50
8105;DHT22;4095;48.942;9.104;2022-07-09T05:00:32;15.80;93.50
8105;DHT22;4095;48.942;9.104;2022-07-09T05:03:00;15.90;93.70
8105;DHT22;4095;48.942;9.104;2022-07-09T05:05:26;15.90;93.70
8105;DHT22;4095;48.942;9.104;2022-07-09T05:07:52;15.90;93.60
8105;DHT22;4095;48.942;9.104;2022-07-09T05:10:18;16.00;93.40
8105;DHT22;4095;48.942;9.104;2022-07-09T05:12:43;15.90;93.40
8105;DHT22;4095;48.942;9.104;2022-07-09T05:15:09;16.00;93.90
8105;DHT22;4095;48.942;9.104;2022-07-09T05:17:36;16.10;93.90
8105;DHT22;4095;48.942;9.104;2022-07-09T05:20:03;16.10;93.60
8105;DHT22;4095;48.942;9.104;2022-07-09T05:22:31;16.20;93.10
8105;DHT22;4095;48.942;9.104;2022-07-09T05:24:58;16.30;93.70
8105;DHT22;4095;48.942;9.104;2022-07-09T05:27:23;16.40;93.50
8105;DHT22;4095;48.942;9.104;2022-07-09T05:29:49;16.50;93.60
8105;DHT22;4095;48.942;9.104;2022-07-09T05:32:15;16.60;93.30
8105;DHT22;4095;48.942;9.104;2022-07-09T05:34:41;16.70;93.20
8105;DHT22;4095;48.942;9.104;2022-07-09T05:37:07;16.80;93.30
8105;DHT22;4095;48.942;9.104;2022-07-09T05:39:32;16.80;92.90
8105;DHT22;4095;48.942;9.104;2022-07-09T05:41:58;17.00;93.20
8105;DHT22;4095;48.942;9.104;2022-07-09T05:44:24;17.00;92.90
8105;DHT22;4095;48.942;9.104;2022-07-09T05:46:49;17.10;93.00
8105;DHT22;4095;48.942;9.104;2022-07-09T05:49:15;17.10;92.70
8105;DHT22;4095;48.942;9.104;2022-07-09T05:51:40;17.10;92.50
8105;DHT22;4095;48.942;9.104;2022-07-09T05:54:06;17.20;92.80
8105;DHT22;4095;48.942;9.104;2022-07-09T05:56:32;17.30;92.60
8105;DHT22;4095;48.942;9.104;2022-07-09T05:58:57;17.40;92.60
8105;DHT22;4095;48.942;9.104;2022-07-09T06:01:23;17.50;92.50
8105;DHT22;4095;48.942;9.104;2022-07-09T06:03:49;17.50;92.20
8105;DHT22;4095;48.942;9.104;2022-07-09T06:06:14;17.70;92.10
8105;DHT22;4095;48.942;9.104;2022-07-09T06:08:40;17.80;92.20
8105;DHT22;4095;48.942;9.104;2022-07-09T06:11:06;17.80;91.80
8105;DHT22;4095;48.942;9.104;2022-07-09T06:13:31;17.90;92.20
8105;DHT22;4095;48.942;9.104;2022-07-09T06:15:57;18.00;92.00
8105;DHT22;4095;48.942;9.104;2022-07-09T06:18:23;18.00;92.20
8105;DHT22;4095;48.942;9.104;2022-07-09T06:20:48;18.20;91.90
8105;DHT22;4095;48.942;9.104;2022-07-09T06:23:15;18.30;91.90
8105;DHT22;4095;48.942;9.104;2022-07-09T06:25:40;18.40;91.50
8105;DHT22;4095;48.942;9.104;2022-07-09T06:28:06;18.50;91.70
8105;DHT22;4095;48.942;9.104;2022-07-09T06:30:33;18.70;91.70
8105;DHT22;4095;48.942;9.104;2022-07-09T06:33:00;18.70;91.20
8105;DHT22;4095;48.942;9.104;2022-07-09T06:35:26;18.80;91.10
8105;DHT22;4095;48.942;9.104;2022-07-09T06:37:51;18.90;90.50
8105;DHT22;4095;48.942;9.104;2022-07-09T06:40:17;18.90;90.80
8105;DHT22;4095;48.942;9.104;2022-07-09T06:42:43;19.10;90.90
8105;DHT22;4095;48.942;9.104;2022-07-09T06:45:09;19.10;91.00
8105;DHT22;4095;48.942;9.104;2022-07-09T06:47:35;19.20;91.00
8105;DHT22;4095;48.942;9.104;2022-07-09T06:50:01;19.30;91.10
8105;DHT22;4095;48.942;9.104;2022-07-09T06:52:26;19.40;91.20
8105;DHT22;4095;48.942;9.104;2022-07-09T06:54:53;19.50;91.00
8105;DHT22;4095;48.942;9.104;2022-07-09T06:57:18;19.50;89.90
8105;DHT22;4095;48.942;9.104;2022-07-09T06:59:44;19.50;90.50
8105;DHT22;4095;48.942;9.104;2022-07-09T07:02:14;19.70;90.90
8105;DHT22;4095;48.942;9.104;2022-07-09T07:04:42;19.80;91.10
8105;DHT22;4095;48.942;9.104;2022-07-09T07:07:07;19.90;90.80
8105;DHT22;4095;48.942;9.104;2022-07-09T07:09:33;20.00;91.00
8105;DHT22;4095;48.942;9.104;2022-07-09T07:11:59;20.00;90.60
8105;DHT22;4095;48.942;9.104;2022-07-09T07:14:24;20.10;90.20
8105;DHT22;4095;48.942;9.104;2022-07-09T07:16:50;20.10;90.30
8105;DHT22;4095;48.942;9.104;2022-07-09T07:19:18;20.20;90.40
8105;DHT22;4095;48.942;9.104;2022-07-09T07:21:45;20.20;90.40
8105;DHT22;4095;48.942;9.104;2022-07-09T07:24:10;20.30;90.40
8105;DHT22;4095;48.942;9.104;2022-07-09T07:26:37;20.30;90.60
8105;DHT22;4095;48.942;9.104;2022-07-09T07:29:03;20.30;90.40
8105;DHT22;4095;48.942;9.104;2022-07-09T07:31:28;20.50;90.60
8105;DHT22;4095;48.942;9.104;2022-07-09T07:33:54;20.50;90.00
8105;DHT22;4095;48.942;9.104;2022-07-09T07:36:19;20.60;90.10
8105;DHT22;4095;48.942;9.104;2022-07-09T07:38:45;20.60;90.00
8105;DHT22;4095;48.942;9.104;2022-07-09T07:41:11;20.80;90.40
8105;DHT22;4095;48.942;9.104;2022-07-09T07:43:38;20.80;89.90
8105;DHT22;4095;48.942;9.104;2022-07-09T07:46:03;20.90;87.90
8105;DHT22;4095;48.942;9.104;2022-07-09T07:48:29;20.90;88.00
8105;DHT22;4095;48.942;9.104;2022-07-09T07:50:56;20.90;88.30
8105;DHT22;4095;48.942;9.104;2022-07-09T07:53:22;21.10;90.10
8105;DHT22;4095;48.942;9.104;2022-07-09T07:55:48;21.20;87.60
8105;DHT22;4095;48.942;9.104;2022-07-09T07:58:13;21.30;88.80
8105;DHT22;4095;48.942;9.104;2022-07-09T08:00:39;21.40;88.90
8105;DHT22;4095;48.942;9.104;2022-07-09T08:03:05;21.60;89.30
8105;DHT22;4095;48.942;9.104;2022-07-09T08:05:30;21.70;88.40
8105;DHT22;4095;48.942;9.104;2022-07-09T08:07:57;21.80;87.40
8105;DHT22;4095;48.942;9.104;2022-07-09T08:10:23;21.90;87.60
8105;DHT22;4095;48.942;9.104;2022-07-09T08:12:49;21.90;87.40
8105;DHT22;4095;48.942;9.104;2022-07-09T08:15:15;22.10;87.70
8105;DHT22;4095;48.942;9.104;2022-07-09T08:17:40;22.10;84.90
8105;DHT22;4095;48.942;9.104;2022-07-09T08:20:06;22.10;84.80
8105;DHT22;4095;48.942;9.104;2022-07-09T08:22:32;22.10;85.70
8105;DHT22;4095;48.942;9.104;2022-07-09T08:24:58;22.30;84.90
8105;DHT22;4095;48.942;9.104;2022-07-09T08:27:23;22.40;86.00
8105;DHT22;4095;48.942;9.104;2022-07-09T08:29:49;22.50;87.20
8105;DHT22;4095;48.942;9.104;2022-07-09T08:32:15;22.70;85.80
8105;DHT22;4095;48.942;9.104;2022-07-09T08:34:41;22.80;85.00
8105;DHT22;4095;48.942;9.104;2022-07-09T08:37:06;23.00;85.70
8105;DHT22;4095;48.942;9.104;2022-07-09T08:39:32;23.10;84.50
8105;DHT22;4095;48.942;9.104;2022-07-09T08:41:59;23.30;84.70
8105;DHT22;4095;48.942;9.104;2022-07-09T08:44:29;23.40;84.10
8105;DHT22;4095;48.942;9.104;2022-07-09T08:47:00;23.50;83.70
8105;DHT22;4095;48.942;9.104;2022-07-09T08:49:27;23.60;82.00
8105;DHT22;4095;48.942;9.104;2022-07-09T08:51:55;23.60;81.30
8105;DHT22;4095;48.942;9.104;2022-07-09T08:54:22;23.60;82.90
8105;DHT22;4095;48.942;9.104;2022-07-09T08:56:49;23.70;82.80
8105;DHT22;4095;48.942;9.104;2022-07-09T08:59:15;23.90;82.30
8105;DHT22;4095;48.942;9.104;2022-07-09T09:01:40;23.90;82.20
8105;DHT22;4095;48.942;9.104;2022-07-09T09:04:06;24.10;84.40
8105;DHT22;4095;48.942;9.104;2022-07-09T09:06:37;24.20;81.40
8105;DHT22;4095;48.942;9.104;2022-07-09T09:09:03;24.20;80.00
8105;DHT22;4095;48.942;9.104;2022-07-09T09:11:29;24.30;81.10
8105;DHT22;4095;48.942;9.104;2022-07-09T09:13:56;24.30;81.20
8105;DHT22;4095;48.942;9.104;2022-07-09T09:16:23;24.30;79.50
8105;DHT22;4095;48.942;9.104;2022-07-09T09:18:51;24.30;80.10
8105;DHT22;4095;48.942;9.104;2022-07-09T09:21:20;24.40;80.50
8105;DHT22;4095;48.942;9.104;2022-07-09T09:23:50;24.50;80.60
8105;DHT22;4095;48.942;9.104;2022-07-09T09:26:25;24.50;79.60
8105;DHT22;4095;48.942;9.104;2022-07-09T09:28:59;24.60;80.30
8105;DHT22;4095;48.942;9.104;2022-07-09T09:31:27;24.70;82.40
8105;DHT22;4095;48.942;9.104;2022-07-09T09:33:56;24.80;79.90
8105;DHT22;4095;48.942;9.104;2022-07-09T09:36:52;24.80;79.30
8105;DHT22;4095;48.942;9.104;2022-07-09T09:39:24;24.90;78.70
8105;DHT22;4095;48.942;9.104;2022-07-09T09:41:56;24.90;78.20
8105;DHT22;4095;48.942;9.104;2022-07-09T09:44:24;24.90;78.30
8105;DHT22;4095;48.942;9.104;2022-07-09T09:46:52;25.00;78.40
8105;DHT22;4095;48.942;9.104;2022-07-09T09:49:18;25.00;78.10
8105;DHT22;4095;48.942;9.104;2022-07-09T09:51:56;25.10;78.80
8105;DHT22;4095;48.942;9.104;2022-07-09T09:54:22;25.20;77.70
8105;DHT22;4095;48.942;9.104;2022-07-09T09:56:49;25.30;78.60
8105;DHT22;4095;48.942;9.104;2022-07-09T09:59:15;25.40;80.20
8105;DHT22;4095;48.942;9.104;2022-07-09T10:01:42;25.50;77.20
8105;DHT22;4095;48.942;9.104;2022-07-09T10:04:13;25.50;77.10
8105;DHT22;4095;48.942;9.104;2022-07-09T10:06:39;25.40;75.80
8105;DHT22;4095;48.942;9.104;2022-07-09T10:09:06;25.20;75.30
8105;DHT22;4095;48.942;9.104;2022-07-09T10:11:45;25.10;76.60
8105;DHT22;4095;48.942;9.104;2022-07-09T10:14:31;25.20;77.20
8105;DHT22;4095;48.942;9.104;2022-07-09T10:17:13;25.30;77.20
8105;DHT22;4095;48.942;9.104;2022-07-09T10:19:57;25.50;76.80
8105;DHT22;4095;48.942;9.104;2022-07-09T10:22:34;25.60;76.40
8105;DHT22;4095;48.942;9.104;2022-07-09T10:25:01;25.70;76.00
8105;DHT22;4095;48.942;9.104;2022-07-09T10:27:26;25.80;76.10
8105;DHT22;4095;48.942;9.104;2022-07-09T10:29:57;26.00;76.60
8105;DHT22;4095;48.942;9.104;2022-07-09T10:32:31;26.20;76.70
8105;DHT22;4095;48.942;9.104;2022-07-09T10:35:05;26.20;74.30
8105;DHT22;4095;48.942;9.104;2022-07-09T10:37:44;26.20;74.90
8105;DHT22;4095;48.942;9.104;2022-07-09T10:40:18;26.10;74.70
8105;DHT22;4095;48.942;9.104;2022-07-09T10:42:45;26.00;75.00
8105;DHT22;4095;48.942;9.104;2022-07-09T10:45:26;25.90;75.60
8105;DHT22;4095;48.942;9.104;2022-07-09T10:47:54;25.70;77.20
8105;DHT22;4095;48.942;9.104;2022-07-09T10:50:20;25.60;77.00
8105;DHT22;4095;48.942;9.104;2022-07-09T10:52:46;25.60;77.10
8105;DHT22;4095;48.942;9.104;2022-07-09T10:55:18;25.50;77.20
8105;DHT22;4095;48.942;9.104;2022-07-09T10:57:44;25.30;77.80
8105;DHT22;4095;48.942;9.104;2022-07-09T11:00:15;25.30;78.20
8105;DHT22;4095;48.942;9.104;2022-07-09T11:03:01;25.20;78.00
8105;DHT22;4095;48.942;9.104;2022-07-09T11:05:34;25.20;79.20
8105;DHT22;4095;48.942;9.104;2022-07-09T11:08:08;25.10;78.80
8105;DHT22;4095;48.942;9.104;2022-07-09T11:10:38;25.10;79.90
8105;DHT22;4095;48.942;9.104;2022-07-09T11:13:06;25.00;79.70
8105;DHT22;4095;48.942;9.104;2022-07-09T11:15:34;25.00;79.20
8105;DHT22;4095;48.942;9.104;2022-07-09T11:18:11;25.00;79.20
8105;DHT22;4095;48.942;9.104;2022-07-09T11:20:48;25.00;79.10
8105;DHT22;4095;48.942;9.104;2022-07-09T11:23:15;25.10;77.60
8105;DHT22;4095;48.942;9.104;2022-07-09T11:25:42;25.10;78.80
8105;DHT22;4095;48.942;9.104;2022-07-09T11:28:08;25.10;79.10
8105;DHT22;4095;48.942;9.104;2022-07-09T11:30:44;25.10;78.60
8105;DHT22;4095;48.942;9.104;2022-07-09T11:33:12;25.20;79.70
8105;DHT22;4095;48.942;9.104;2022-07-09T11:35:37;25.20;77.00
8105;DHT22;4095;48.942;9.104;2022-07-09T11:38:04;25.10;76.00
8105;DHT22;4095;48.942;9.104;2022-07-09T11:40:32;25.20;76.80
8105;DHT22;4095;48.942;9.104;2022-07-09T11:42:58;25.30;78.40
8105;DHT22;4095;48.942;9.104;2022-07-09T11:45:28;25.30;77.30
8105;DHT22;4095;48.942;9.104;2022-07-09T11:48:06;25.30;74.30
8105;DHT22;4095;48.942;9.104;2022-07-09T11:50:32;25.30;74.30
8105;DHT22;4095;48.942;9.104;2022-07-09T11:52:58;25.30;75.70
8105;DHT22;4095;48.942;9.104;2022-07-09T11:55:31;25.50;76.10
8105;DHT22;4095;48.942;9.104;2022-07-09T11:57:58;25.50;75.20
8105;DHT22;4095;48.942;9.104;2022-07-09T12:00:29;25.60;75.00
8105;DHT22;4095;48.942;9.104;2022-07-09T12:02:56;25.70;74.30
8105;DHT22;4095;48.942;9.104;2022-07-09T12:07:58;26.10;74.90
8105;DHT22;4095;48.942;9.104;2022-07-09T12:10:29;26.30;76.40
8105;DHT22;4095;48.942;9.104;2022-07-09T12:12:56;26.50;73.50
8105;DHT22;4095;48.942;9.104;2022-07-09T12:15:22;26.60;75.40
8105;DHT22;4095;48.942;9.104;2022-07-09T12:17:55;26.70;73.20
8105;DHT22;4095;48.942;9.104;2022-07-09T12:20:22;26.80;70.70
8105;DHT22;4095;48.942;9.104;2022-07-09T12:22:48;26.80;73.30
8105;DHT22;4095;48.942;9.104;2022-07-09T12:25:14;26.90;71.40
8105;DHT22;4095;48.942;9.104;2022-07-09T12:27:39;27.00;71.80
8105;DHT22;4095;48.942;9.104;2022-07-09T12:30:06;27.00;72.80
8105;DHT22;4095;48.942;9.104;2022-07-09T12:32:32;27.00;73.90
8105;DHT22;4095;48.942;9.104;2022-07-09T12:34:57;27.10;71.00
8105;DHT22;4095;48.942;9.104;2022-07-09T12:37:23;27.10;70.80
8105;DHT22;4095;48.942;9.104;2022-07-09T12:39:48;27.20;69.60
8105;DHT22;4095;48.942;9.104;2022-07-09T12:42:15;27.30;69.40
8105;DHT22;4095;48.942;9.104;2022-07-09T12:44:40;27.20;68.50
8105;DHT22;4095;48.942;9.104;2022-07-09T12:47:06;27.30;69.90
8105;DHT22;4095;48.942;9.104;2022-07-09T12:49:32;27.40;69.20
8105;DHT22;4095;48.942;9.104;2022-07-09T12:51:57;27.40;69.40
8105;DHT22;4095;48.942;9.104;2022-07-09T12:54:23;27.40;69.20
8105;DHT22;4095;48.942;9.104;2022-07-09T12:56:49;27.40;68.90
8105;DHT22;4095;48.942;9.104;2022-07-09T12:59:16;27.40;69.80
8105;DHT22;4095;48.942;9.104;2022-07-09T13:01:43;27.30;70.70
8105;DHT22;4095;48.942;9.104;2022-07-09T13:04:09;27.20;70.40
8105;DHT22;4095;48.942;9.104;2022-07-09T13:06:34;27.30;71.00
8105;DHT22;4095;48.942;9.104;2022-07-09T13:09:06;27.30;70.20
8105;DHT22;4095;48.942;9.104;2022-07-09T13:11:32;27.30;71.10
8105;DHT22;4095;48.942;9.104;2022-07-09T13:13:58;27.20;70.20
8105;DHT22;4095;48.942;9.104;2022-07-09T13:16:24;27.10;71.00
8105;DHT22;4095;48.942;9.104;2022-07-09T13:18:50;27.10;71.00
8105;DHT22;4095;48.942;9.104;2022-07-09T13:21:17;27.00;72.30
8105;DHT22;4095;48.942;9.104;2022-07-09T13:23:43;26.90;72.20
8105;DHT22;4095;48.942;9.104;2022-07-09T13:26:08;26.90;72.50
8105;DHT22;4095;48.942;9.104;2022-07-09T13:28:34;26.80;72.50
8105;DHT22;4095;48.942;9.104;2022-07-09T13:30:59;26.80;73.30
8105;DHT22;4095;48.942;9.104;2022-07-09T13:33:25;26.70;73.60
8105;DHT22;4095;48.942;9.104;2022-07-09T13:35:50;26.80;73.40
8105;DHT22;4095;48.942;9.104;2022-07-09T13:38:16;26.70;73.30
8105;DHT22;4095;48.942;9.104;2022-07-09T13:40:42;26.80;74.60
8105;DHT22;4095;48.942;9.104;2022-07-09T13:43:07;26.80;73.40
8105;DHT22;4095;48.942;9.104;2022-07-09T13:45:33;26.80;73.00
8105;DHT22;4095;48.942;9.104;2022-07-09T13:47:58;26.80;73.90
8105;DHT22;4095;48.942;9.104;2022-07-09T13:50:24;26.90;74.80
8105;DHT22;4095;48.942;9.104;2022-07-09T13:52:50;26.80;74.30
8105;DHT22;4095;48.942;9.104;2022-07-09T13:55:15;26.80;74.80
8105;DHT22;4095;48.942;9.104;2022-07-09T13:57:41;26.80;72.60
8105;DHT22;4095;48.942;9.104;2022-07-09T14:00:08;26.70;75.30
8105;DHT22;4095;48.942;9.104;2022-07-09T14:02:35;26.80;74.60
8105;DHT22;4095;48.942;9.104;2022-07-09T14:05:03;26.70;73.60
8105;DHT22;4095;48.942;9.104;2022-07-09T14:07:29;26.70;74.00
8105;DHT22;4095;48.942;9.104;2022-07-09T14:09:55;26.70;73.60
8105;DHT22;4095;48.942;9.104;2022-07-09T14:12:21;26.70;73.20
8105;DHT22;4095;48.942;9.104;2022-07-09T14:14:52;26.70;73.90
8105;DHT22;4095;48.942;9.104;2022-07-09T14:17:18;26.70;72.50
8105;DHT22;4095;48.942;9.104;2022-07-09T14:19:44;26.70;73.60
8105;DHT22;4095;48.942;9.104;2022-07-09T14:22:10;26.70;71.50
8105;DHT22;4095;48.942;9.104;2022-07-09T14:24:36;26.60;72.40
8105;DHT22;4095;48.942;9.104;2022-07-09T14:27:02;26.60;72.90
8105;DHT22;4095;48.942;9.104;2022-07-09T14:29:28;26.60;73.60
8105;DHT22;4095;48.942;9.104;2022-07-09T14:31:53;26.60;73.10
8105;DHT22;4095;48.942;9.104;2022-07-09T14:34:19;26.60;73.80
8105;DHT22;4095;48.942;9.104;2022-07-09T14:36:45;26.60;73.30
8105;DHT22;4095;48.942;9.104;2022-07-09T14:39:11;26.60;74.00
8105;DHT22;4095;48.942;9.104;2022-07-09T14:41:36;26.60;73.70
8105;DHT22;4095;48.942;9.104;2022-07-09T14:44:03;26.60;71.20
8105;DHT22;4095;48.942;9.104;2022-07-09T14:46:29;26.60;72.00
8105;DHT22;4095;48.942;9.104;2022-07-09T14:48:54;26.60;72.90
8105;DHT22;4095;48.942;9.104;2022-07-09T14:51:20;26.60;73.80
8105;DHT22;4095;48.942;9.104;2022-07-09T14:53:46;26.60;72.70
8105;DHT22;4095;48.942;9.104;2022-07-09T14:56:11;26.70;73.50
8105;DHT22;4095;48.942;9.104;2022-07-09T14:58:37;26.70;75.00
8105;DHT22;4095;48.942;9.104;2022-07-09T15:01:04;26.70;75.30
8105;DHT22;4095;48.942;9.104;2022-07-09T15:03:30;26.70;75.00
8105;DHT22;4095;48.942;9.104;2022-07-09T15:05:56;26.70;74.40
8105;DHT22;4095;48.942;9.104;2022-07-09T15:08:21;26.80;74.50
8105;DHT22;4095;48.942;9.104;2022-07-09T15:10:47;26.80;73.50
8105;DHT22;4095;48.942;9.104;2022-07-09T15:13:13;26.80;74.10
8105;DHT22;4095;48.942;9.104;2022-07-09T15:15:38;26.80;74.80
8105;DHT22;4095;48.942;9.104;2022-07-09T15:18:05;26.70;73.40
8105;DHT22;4095;48.942;9.104;2022-07-09T15:20:31;26.70;74.80
8105;DHT22;4095;48.942;9.104;2022-07-09T15:22:58;26.60;74.90
8105;DHT22;4095;48.942;9.104;2022-07-09T15:25:24;26.70;73.30
8105;DHT22;4095;48.942;9.104;2022-07-09T15:27:50;26.60;73.90
8105;DHT22;4095;48.942;9.104;2022-07-09T15:30:16;26.70;73.20
8105;DHT22;4095;48.942;9.104;2022-07-09T15:32:47;26.60;73.10
8105;DHT22;4095;48.942;9.104;2022-07-09T15:35:13;26.70;74.80
8105;DHT22;4095;48.942;9.104;2022-07-09T15:37:39;26.80;74.20
8105;DHT22;4095;48.942;9.104;2022-07-09T15:40:06;26.80;73.80
8105;DHT22;4095;48.942;9.104;2022-07-09T15:42:31;26.80;74.00
8105;DHT22;4095;48.942;9.104;2022-07-09T15:44:57;26.70;75.00
8105;DHT22;4095;48.942;9.104;2022-07-09T15:47:22;26.70;74.20
8105;DHT22;4095;48.942;9.104;2022-07-09T15:49:48;26.60;74.70
8105;DHT22;4095;48.942;9.104;2022-07-09T15:52:14;26.60;75.20
8105;DHT22;4095;48.942;9.104;2022-07-09T15:54:40;26.50;74.90
8105;DHT22;4095;48.942;9.104;2022-07-09T15:57:06;26.50;75.50
8105;DHT22;4095;48.942;9.104;2022-07-09T15:59:31;26.50;75.40
8105;DHT22;4095;48.942;9.104;2022-07-09T16:01:57;26.40;75.40